createdAt,value
2019-04-22T00:00:16.694Z,0.00
2019-04-22T00:01:21.547Z,0.00
2019-04-22T00:02:15.211Z,0.00
2019-04-22T00:03:16.785Z,0.00
2019-04-22T00:04:22.991Z,0.00
2019-04-22T00:05:36.500Z,0.00
2019-04-22T00:06:42.486Z,0.00
2019-04-22T00:07:38.971Z,0.00
2019-04-22T00:08:36.120Z,0.00
2019-04-22T00:09:41.843Z,0.00
2019-04-22T00:10:43.588Z,0.00
2019-04-22T00:12:00.378Z,0.00
2019-04-22T00:12:42.352Z,0.00
2019-04-22T00:13:49.175Z,0.00
2019-04-22T00:14:35.167Z,0.00
2019-04-22T00:15:39.226Z,0.00
2019-04-22T00:16:47.248Z,0.00
2019-04-22T00:17:45.493Z,0.00
2019-04-22T00:18:57.834Z,0.00
2019-04-22T00:19:45.335Z,0.00
2019-04-22T00:20:43.206Z,0.00
2019-04-22T00:22:40.194Z,0.00
2019-04-22T00:23:39.522Z,0.00
2019-04-22T00:24:46.832Z,0.00
2019-04-22T00:25:48.329Z,0.00
2019-04-22T00:26:44.498Z,0.00
2019-04-22T00:27:51.066Z,0.00
2019-04-22T00:28:44.079Z,0.00
2019-04-22T00:30:02.385Z,0.00
2019-04-22T00:30:41.925Z,0.00
2019-04-22T00:31:41.690Z,0.00
2019-04-22T00:32:43.344Z,0.00
2019-04-22T00:33:38.889Z,0.00
2019-04-22T00:34:44.019Z,0.00
2019-04-22T00:35:42.007Z,0.00
2019-04-22T00:36:43.779Z,0.00
2019-04-22T00:37:46.241Z,0.00
2019-04-22T00:38:49.514Z,0.00
2019-04-22T00:39:46.480Z,0.00
2019-04-22T00:40:44.952Z,0.00
2019-04-22T00:41:44.077Z,0.00
2019-04-22T00:42:46.947Z,0.00
2019-04-22T00:43:48.170Z,0.00
2019-04-22T00:44:45.120Z,0.00
2019-04-22T00:45:44.833Z,0.00
2019-04-22T00:46:47.891Z,0.00
2019-04-22T00:47:54.846Z,0.00
2019-04-22T00:48:57.696Z,0.00
2019-04-22T00:50:48.205Z,0.00
2019-04-22T00:51:52.379Z,0.00
2019-04-22T00:52:49.319Z,0.00
2019-04-22T00:53:50.761Z,0.00
2019-04-22T00:54:35.977Z,0.00
2019-04-22T00:55:47.460Z,0.00
2019-04-22T00:56:40.634Z,0.00
2019-04-22T00:57:46.295Z,0.00
2019-04-22T00:58:45.322Z,0.00
2019-04-22T00:59:49.637Z,0.00
2019-04-22T01:00:45.518Z,0.00
2019-04-22T01:01:45.654Z,0.00
2019-04-22T01:02:52.175Z,0.00
2019-04-22T01:04:49.445Z,0.00
2019-04-22T01:05:46.950Z,0.00
2019-04-22T01:06:44.526Z,0.00
2019-04-22T01:07:53.235Z,0.00
2019-04-22T01:08:53.646Z,0.00
2019-04-22T01:09:51.802Z,0.00
2019-04-22T01:10:59.033Z,0.00
2019-04-22T01:11:48.534Z,0.00
2019-04-22T01:13:49.813Z,0.00
2019-04-22T01:14:52.018Z,0.00
2019-04-22T01:15:47.802Z,0.00
2019-04-22T01:16:48.516Z,0.00
2019-04-22T01:17:52.969Z,0.00
2019-04-22T01:18:50.557Z,0.00
2019-04-22T01:19:56.217Z,0.00
2019-04-22T01:21:06.940Z,0.00
2019-04-22T01:21:43.834Z,0.00
2019-04-22T01:22:47.678Z,0.00
2019-04-22T01:23:49.096Z,0.00
2019-04-22T01:24:44.890Z,0.00
2019-04-22T01:25:46.276Z,0.00
2019-04-22T01:26:47.669Z,0.00
2019-04-22T01:27:39.288Z,0.00
2019-04-22T01:28:39.266Z,0.00
2019-04-22T01:29:39.698Z,0.00
2019-04-22T01:30:34.976Z,0.00
2019-04-22T01:31:30.598Z,0.00
2019-04-22T01:32:34.027Z,0.00
2019-04-22T01:33:33.161Z,0.00
2019-04-22T01:34:40.077Z,0.00
2019-04-22T01:35:39.778Z,0.00
2019-04-22T01:36:51.715Z,0.00
2019-04-22T01:37:46.101Z,0.00
2019-04-22T01:38:52.957Z,0.00
2019-04-22T01:39:50.066Z,0.00
2019-04-22T01:40:58.457Z,0.00
2019-04-22T01:42:06.102Z,0.00
2019-04-22T01:42:56.232Z,0.00
2019-04-22T01:43:59.016Z,0.00
2019-04-22T01:44:50.917Z,0.00
2019-04-22T01:45:53.333Z,0.00
2019-04-22T01:48:14.520Z,0.00
2019-04-22T01:48:57.406Z,0.00
2019-04-22T01:49:57.945Z,0.00
2019-04-22T01:50:49.901Z,0.00
2019-04-22T01:51:58.423Z,0.00
2019-04-22T01:53:00.933Z,0.00
2019-04-22T01:54:00.153Z,0.00
2019-04-22T01:54:56.871Z,0.00
2019-04-22T01:56:02.021Z,0.00
2019-04-22T01:56:55.765Z,0.00
2019-04-22T01:57:53.570Z,0.00
2019-04-22T01:58:50.210Z,0.00
2019-04-22T01:59:46.029Z,0.00
2019-04-22T02:01:00.047Z,0.00
2019-04-22T02:01:57.483Z,0.00
2019-04-22T02:03:02.462Z,0.00
2019-04-22T02:03:57.496Z,0.00
2019-04-22T02:05:02.161Z,0.00
2019-04-22T02:06:02.335Z,0.00
2019-04-22T02:06:57.695Z,0.00
2019-04-22T02:07:57.981Z,0.00
2019-04-22T02:09:02.031Z,0.00
2019-04-22T02:09:55.122Z,0.00
2019-04-22T02:12:04.659Z,0.00
2019-04-22T02:13:04.503Z,0.00
2019-04-22T02:13:56.790Z,0.00
2019-04-22T02:14:58.022Z,0.00
2019-04-22T02:15:58.498Z,0.00
2019-04-22T02:17:01.341Z,0.00
2019-04-22T02:18:02.763Z,0.00
2019-04-22T02:19:09.683Z,0.00
2019-04-22T02:20:00.859Z,0.00
2019-04-22T02:21:00.154Z,0.00
2019-04-22T02:21:55.970Z,0.00
2019-04-22T02:23:15.871Z,0.00
2019-04-22T02:24:05.290Z,0.00
2019-04-22T02:25:06.713Z,0.00
2019-04-22T02:26:02.485Z,0.00
2019-04-22T02:26:56.777Z,0.00
2019-04-22T02:28:11.126Z,0.00
2019-04-22T02:28:58.062Z,0.00
2019-04-22T02:29:58.441Z,0.00
2019-04-22T02:31:22.074Z,0.00
2019-04-22T02:32:15.311Z,0.00
2019-04-22T02:33:30.730Z,0.00
2019-04-22T02:34:18.737Z,0.00
2019-04-22T02:35:11.678Z,0.00
2019-04-22T02:36:19.125Z,0.00
2019-04-22T02:37:04.248Z,0.00
2019-04-22T02:38:08.057Z,0.00
2019-04-22T02:39:05.703Z,0.00
2019-04-22T02:40:09.202Z,0.00
2019-04-22T02:42:14.297Z,0.00
2019-04-22T02:43:12.536Z,0.00
2019-04-22T02:44:58.508Z,0.00
2019-04-22T02:47:11.985Z,0.00
2019-04-22T02:48:10.384Z,0.00
2019-04-22T02:51:12.442Z,0.00
2019-04-22T02:52:14.536Z,0.00
2019-04-22T02:53:13.854Z,0.00
2019-04-22T02:57:16.653Z,0.00
2019-04-22T02:58:06.268Z,0.00
2019-04-22T02:59:09.535Z,0.00
2019-04-22T03:00:15.900Z,0.00
2019-04-22T03:01:13.569Z,0.00
2019-04-22T03:02:03.171Z,0.00
2019-04-22T03:05:09.145Z,0.00
2019-04-22T03:07:03.342Z,0.00
2019-04-22T03:08:14.949Z,0.00
2019-04-22T03:09:16.302Z,0.00
2019-04-22T03:10:15.497Z,0.00
2019-04-22T03:11:13.524Z,0.00
2019-04-22T03:12:16.445Z,0.00
2019-04-22T03:13:21.301Z,0.00
2019-04-22T03:15:07.811Z,0.00
2019-04-22T03:18:09.998Z,0.00
2019-04-22T03:19:36.599Z,0.00
2019-04-22T03:21:15.952Z,0.00
2019-04-22T03:22:16.102Z,0.00
2019-04-22T03:23:25.034Z,0.00
2019-04-22T03:24:25.710Z,0.00
2019-04-22T03:25:42.328Z,0.00
2019-04-22T03:27:08.071Z,0.00
2019-04-22T03:28:10.307Z,0.00
2019-04-22T03:29:31.015Z,0.00
2019-04-22T03:30:48.278Z,0.00
2019-04-22T03:31:20.304Z,0.00
2019-04-22T03:32:39.458Z,0.00
2019-04-22T03:34:55.407Z,0.00
2019-04-22T03:36:49.210Z,0.00
2019-04-22T03:37:23.161Z,0.00
2019-04-22T03:38:08.581Z,0.00
2019-04-22T03:39:27.731Z,0.00
2019-04-22T03:42:23.456Z,0.00
2019-04-22T03:43:13.713Z,0.00
2019-04-22T03:44:23.465Z,4.00
2019-04-22T03:45:27.177Z,4.00
2019-04-22T03:46:05.146Z,0.00
2019-04-22T03:47:21.320Z,4.00
2019-04-22T03:48:26.383Z,4.00
2019-04-22T03:49:28.871Z,4.00
2019-04-22T03:51:25.296Z,4.00
2019-04-22T03:53:15.002Z,8.00
2019-04-22T03:56:36.544Z,12.00
2019-04-22T03:58:01.420Z,12.00
2019-04-22T04:00:30.321Z,20.00
2019-04-22T04:01:30.174Z,24.00
2019-04-22T04:02:26.260Z,28.00
2019-04-22T04:03:11.721Z,32.00
2019-04-22T04:04:32.736Z,36.00
2019-04-22T04:06:18.030Z,48.00
2019-04-22T04:08:31.863Z,60.00
2019-04-22T04:10:30.647Z,72.00
2019-04-22T04:11:26.270Z,80.00
2019-04-22T04:13:16.810Z,104.00
2019-04-22T04:14:35.897Z,112.00
2019-04-22T04:15:21.150Z,124.00
2019-04-22T04:16:30.379Z,140.00
2019-04-22T04:17:20.743Z,152.00
2019-04-22T04:18:41.267Z,168.00
2019-04-22T04:19:30.353Z,180.00
2019-04-22T04:22:32.201Z,232.00
2019-04-22T04:26:33.534Z,308.00
2019-04-22T04:27:43.995Z,324.00
2019-04-22T04:33:22.979Z,452.00
2019-04-22T04:34:55.847Z,476.00
2019-04-22T04:36:28.299Z,516.00
2019-04-22T04:38:24.485Z,556.00
2019-04-22T04:39:26.601Z,576.00
2019-04-22T04:40:29.208Z,600.00
2019-04-22T04:41:33.792Z,616.00
2019-04-22T04:43:25.846Z,664.00
2019-04-22T04:44:35.199Z,684.00
2019-04-22T04:46:47.414Z,740.00
2019-04-22T04:47:39.123Z,760.00
2019-04-22T04:49:32.384Z,804.00
2019-04-22T04:50:17.886Z,824.00
2019-04-22T04:51:32.921Z,848.00
2019-04-22T04:52:52.523Z,868.00
2019-04-22T04:53:34.133Z,888.00
2019-04-22T04:55:27.963Z,932.00
2019-04-22T04:56:30.468Z,952.00
2019-04-22T04:58:34.469Z,996.00
2019-04-22T04:59:42.004Z,1012.00
2019-04-22T05:02:30.495Z,1068.00
2019-04-22T05:03:29.769Z,1088.00
2019-04-22T05:05:28.967Z,1128.00
2019-04-22T05:06:33.076Z,1148.00
2019-04-22T05:07:40.508Z,1168.00
2019-04-22T05:08:39.174Z,1184.00
2019-04-22T05:09:26.180Z,1200.00
2019-04-22T05:10:49.728Z,1220.00
2019-04-22T05:11:40.717Z,1236.00
2019-04-22T05:12:45.382Z,1256.00
2019-04-22T05:13:35.307Z,1272.00
2019-04-22T05:14:24.307Z,1288.00
2019-04-22T05:15:27.275Z,1308.00
2019-04-22T05:17:25.506Z,1340.00
2019-04-22T05:18:33.524Z,1356.00
2019-04-22T05:19:26.513Z,1372.00
2019-04-22T05:22:28.627Z,1420.00
2019-04-22T05:24:31.362Z,1448.00
2019-04-22T05:25:25.183Z,1460.00
2019-04-22T05:26:28.089Z,1476.00
2019-04-22T05:27:32.969Z,1492.00
2019-04-22T05:28:24.459Z,1500.00
2019-04-22T05:29:27.380Z,1520.00
2019-04-22T05:31:22.422Z,1548.00
2019-04-22T05:32:24.430Z,1560.00
2019-04-22T05:33:21.475Z,1572.00
2019-04-22T05:34:21.487Z,1584.00
2019-04-22T05:35:26.548Z,1600.00
2019-04-22T05:36:40.255Z,1608.00
2019-04-22T05:37:27.690Z,1620.00
2019-04-22T05:38:27.977Z,1640.00
2019-04-22T05:39:22.679Z,1652.00
2019-04-22T05:40:22.993Z,1664.00
2019-04-22T05:41:27.222Z,1672.00
2019-04-22T05:42:34.258Z,1684.00
2019-04-22T05:43:21.586Z,1696.00
2019-04-22T05:44:23.548Z,1708.00
2019-04-22T05:46:22.392Z,1728.00
2019-04-22T05:47:26.205Z,1736.00
2019-04-22T05:48:30.531Z,1744.00
2019-04-22T05:49:25.772Z,1752.00
2019-04-22T05:50:22.833Z,1760.00
2019-04-22T05:51:27.824Z,1776.00
2019-04-22T05:53:31.264Z,1800.00
2019-04-22T05:54:28.975Z,1812.00
2019-04-22T05:55:32.710Z,1820.00
2019-04-22T05:56:34.220Z,1828.00
2019-04-22T05:57:23.392Z,1840.00
2019-04-22T05:58:36.374Z,1848.00
2019-04-22T05:59:24.987Z,1864.00
2019-04-22T06:00:35.620Z,1872.00
2019-04-22T06:02:43.175Z,1896.00
2019-04-22T06:03:32.819Z,1912.00
2019-04-22T06:04:25.642Z,1920.00
2019-04-22T06:05:32.060Z,1936.00
2019-04-22T06:06:22.513Z,1944.00
2019-04-22T06:07:26.758Z,1952.00
2019-04-22T06:08:23.276Z,1964.00
2019-04-22T06:09:30.265Z,1976.00
2019-04-22T06:10:37.612Z,1988.00
2019-04-22T06:11:29.541Z,2004.00
2019-04-22T06:12:23.378Z,2016.00
2019-04-22T06:13:26.769Z,2028.00
2019-04-22T06:14:26.368Z,2044.00
2019-04-22T06:15:30.134Z,2056.00
2019-04-22T06:16:31.343Z,2072.00
2019-04-22T06:17:31.325Z,2088.00
2019-04-22T06:18:27.469Z,2096.00
2019-04-22T06:19:27.808Z,2108.00
2019-04-22T06:20:32.140Z,2120.00
2019-04-22T06:21:35.600Z,2132.00
2019-04-22T06:22:41.743Z,2148.00
2019-04-22T06:23:34.605Z,2160.00
2019-04-22T06:24:27.511Z,2164.00
2019-04-22T06:25:38.797Z,2180.00
2019-04-22T06:26:40.653Z,2196.00
2019-04-22T06:28:34.865Z,2220.00
2019-04-22T06:29:41.308Z,2228.00
2019-04-22T06:30:32.495Z,2244.00
2019-04-22T06:31:38.188Z,2256.00
2019-04-22T06:33:53.245Z,2280.00
2019-04-22T06:36:43.138Z,2320.00
2019-04-22T06:37:41.993Z,2336.00
2019-04-22T06:39:34.312Z,2360.00
2019-04-22T06:40:34.261Z,2372.00
2019-04-22T06:41:34.883Z,2388.00
2019-04-22T06:42:35.880Z,2396.00
2019-04-22T06:43:35.522Z,2408.00
2019-04-22T06:44:29.897Z,2412.00
2019-04-22T06:45:30.595Z,2416.00
2019-04-22T06:46:33.575Z,2420.00
2019-04-22T06:47:44.114Z,2420.00
2019-04-22T06:48:29.802Z,2420.00
2019-04-22T06:49:35.589Z,2428.00
2019-04-22T06:50:40.119Z,2432.00
2019-04-22T06:51:35.643Z,2436.00
2019-04-22T06:52:36.606Z,2436.00
2019-04-22T06:53:37.440Z,2436.00
2019-04-22T06:54:32.521Z,2436.00
2019-04-22T06:55:35.735Z,2440.00
2019-04-22T06:56:30.270Z,2444.00
2019-04-22T06:57:30.539Z,2444.00
2019-04-22T06:58:34.996Z,2448.00
2019-04-22T06:59:33.119Z,2448.00
2019-04-22T07:00:36.703Z,2448.00
2019-04-22T07:01:36.922Z,2452.00
2019-04-22T07:02:45.243Z,2460.00
2019-04-22T07:04:35.886Z,2468.00
2019-04-22T07:05:35.107Z,2472.00
2019-04-22T07:07:34.523Z,2480.00
2019-04-22T07:09:05.914Z,2480.00
2019-04-22T07:11:33.919Z,2492.00
2019-04-22T07:12:36.470Z,2504.00
2019-04-22T07:13:36.761Z,2496.00
2019-04-22T07:14:35.586Z,2504.00
2019-04-22T07:15:46.343Z,2516.00
2019-04-22T07:16:38.206Z,2524.00
2019-04-22T07:18:40.857Z,2532.00
2019-04-22T07:19:40.919Z,2536.00
2019-04-22T07:20:42.194Z,2548.00
2019-04-22T07:21:30.842Z,2548.00
2019-04-22T07:22:35.756Z,2552.00
2019-04-22T07:23:41.694Z,2560.00
2019-04-22T07:25:36.380Z,2568.00
2019-04-22T07:26:36.223Z,2576.00
2019-04-22T07:27:34.583Z,2584.00
2019-04-22T07:28:29.148Z,2588.00
2019-04-22T07:29:42.480Z,2592.00
2019-04-22T07:30:40.495Z,2604.00
2019-04-22T07:31:37.297Z,2612.00
2019-04-22T07:32:59.180Z,2620.00
2019-04-22T07:33:37.921Z,2628.00
2019-04-22T07:34:40.484Z,2636.00
2019-04-22T07:35:48.927Z,2652.00
2019-04-22T07:37:41.977Z,2664.00
2019-04-22T07:38:50.457Z,2676.00
2019-04-22T07:39:39.579Z,2676.00
2019-04-22T07:40:43.600Z,2680.00
2019-04-22T07:41:37.767Z,2676.00
2019-04-22T07:42:36.868Z,2692.00
2019-04-22T07:43:59.649Z,2700.00
2019-04-22T07:44:38.490Z,2716.00
2019-04-22T07:45:43.763Z,2732.00
2019-04-22T07:46:43.515Z,2752.00
2019-04-22T07:47:38.090Z,2764.00
2019-04-22T07:50:50.653Z,2776.00
2019-04-22T07:52:38.819Z,2792.00
2019-04-22T07:53:45.430Z,2804.00
2019-04-22T07:54:44.934Z,2820.00
2019-04-22T07:55:40.459Z,2828.00
2019-04-22T07:56:45.347Z,2844.00
2019-04-22T07:57:39.552Z,2848.00
2019-04-22T07:58:42.197Z,2848.00
2019-04-22T07:59:40.787Z,2860.00
2019-04-22T08:00:38.658Z,2872.00
2019-04-22T08:01:38.606Z,2872.00
2019-04-22T08:02:44.074Z,2880.00
2019-04-22T08:03:56.632Z,2864.00
2019-04-22T08:04:53.767Z,2888.00
2019-04-22T08:05:52.141Z,2908.00
2019-04-22T08:06:46.381Z,2916.00
2019-04-22T08:07:45.386Z,2932.00
2019-04-22T08:08:46.005Z,2952.00
2019-04-22T08:09:55.635Z,2960.00
2019-04-22T08:10:49.627Z,2980.00
2019-04-22T08:12:47.363Z,3004.00
2019-04-22T08:13:40.687Z,3020.00
2019-04-22T08:14:45.846Z,3036.00
2019-04-22T08:15:48.523Z,3064.00
2019-04-22T08:16:51.290Z,3084.00
2019-04-22T08:18:39.542Z,3116.00
2019-04-22T08:19:49.458Z,3120.00
2019-04-22T08:20:58.482Z,3128.00
2019-04-22T08:21:49.353Z,3140.00
2019-04-22T08:22:52.196Z,3152.00
2019-04-22T08:23:51.401Z,3176.00
2019-04-22T08:24:51.097Z,3184.00
2019-04-22T08:25:46.163Z,3208.00
2019-04-22T08:26:50.935Z,3228.00
2019-04-22T08:27:42.808Z,3244.00
2019-04-22T08:28:46.895Z,3260.00
2019-04-22T08:29:53.491Z,3264.00
2019-04-22T08:30:51.939Z,3284.00
2019-04-22T08:31:49.147Z,3304.00
2019-04-22T08:32:46.065Z,3320.00
2019-04-22T08:33:46.712Z,3328.00
2019-04-22T08:34:42.660Z,3356.00
2019-04-22T08:36:00.462Z,3360.00
2019-04-22T08:37:50.763Z,3384.00
2019-04-22T08:38:52.800Z,3404.00
2019-04-22T08:40:08.822Z,3420.00
2019-04-22T08:40:48.756Z,3444.00
2019-04-22T08:41:40.340Z,3460.00
2019-04-22T08:45:51.027Z,3592.00
2019-04-22T08:46:48.917Z,3616.00
2019-04-22T08:48:03.023Z,3632.00
2019-04-22T08:48:51.503Z,3656.00
2019-04-22T08:49:59.698Z,3668.00
2019-04-22T08:51:01.179Z,3692.00
2019-04-22T08:51:49.390Z,3712.00
2019-04-22T08:52:53.527Z,3744.00
2019-04-22T08:53:58.900Z,3780.00
2019-04-22T08:54:50.549Z,3796.00
2019-04-22T08:55:56.031Z,3848.00
2019-04-22T08:56:45.615Z,3880.00
2019-04-22T08:58:13.363Z,3908.00
2019-04-22T08:58:57.409Z,3944.00
2019-04-22T08:59:48.766Z,4004.00
2019-04-22T09:01:05.087Z,4028.00
2019-04-22T09:01:47.003Z,4064.00
2019-04-22T09:02:55.139Z,4088.00
2019-04-22T09:03:52.448Z,4136.00
2019-04-22T09:04:48.339Z,4160.00
2019-04-22T09:07:53.868Z,4292.00
2019-04-22T09:08:56.910Z,4324.00
2019-04-22T09:09:50.647Z,4380.00
2019-04-22T09:10:48.565Z,4420.00
2019-04-22T09:11:54.777Z,4468.00
2019-04-22T09:15:02.468Z,4428.00
2019-04-22T09:15:49.110Z,4480.00
2019-04-22T09:16:48.703Z,4536.00
2019-04-22T09:18:00.434Z,4548.00
2019-04-22T09:18:57.496Z,4564.00
2019-04-22T09:19:55.209Z,4552.00
2019-04-22T09:20:58.823Z,4552.00
2019-04-22T09:21:54.570Z,4580.00
2019-04-22T09:22:57.033Z,4564.00
2019-04-22T09:24:00.778Z,4572.00
2019-04-22T09:24:51.783Z,4692.00
2019-04-22T09:25:59.846Z,4740.00
2019-04-22T09:27:00.332Z,4740.00
2019-04-22T09:28:10.668Z,4764.00
2019-04-22T09:29:03.273Z,4788.00
2019-04-22T09:29:56.070Z,4784.00
2019-04-22T09:30:55.624Z,4820.00
2019-04-22T09:32:01.830Z,4868.00
2019-04-22T09:33:53.627Z,4928.00
2019-04-22T09:34:51.980Z,4940.00
2019-04-22T09:36:05.601Z,4952.00
2019-04-22T09:37:01.544Z,4960.00
2019-04-22T09:38:52.916Z,4952.00
2019-04-22T09:39:59.862Z,4956.00
2019-04-22T09:40:52.644Z,4948.00
2019-04-22T09:42:00.512Z,4792.00
2019-04-22T09:42:56.156Z,4956.00
2019-04-22T09:44:00.531Z,4840.00
2019-04-22T09:44:53.585Z,4968.00
2019-04-22T09:45:52.619Z,4992.00
2019-04-22T09:46:51.988Z,5020.00
2019-04-22T09:48:00.865Z,4884.00
2019-04-22T09:49:04.735Z,5072.00
2019-04-22T09:50:54.022Z,5132.00
2019-04-22T09:51:58.166Z,5136.00
2019-04-22T09:54:01.227Z,5184.00
2019-04-22T09:55:15.409Z,5224.00
2019-04-22T09:56:01.688Z,5260.00
2019-04-22T09:56:56.453Z,5308.00
2019-04-22T09:57:56.733Z,5280.00
2019-04-22T09:58:55.662Z,5344.00
2019-04-22T10:00:07.838Z,5312.00
2019-04-22T10:01:03.092Z,5416.00
2019-04-22T10:02:14.623Z,5416.00
2019-04-22T10:03:00.530Z,5396.00
2019-04-22T10:05:00.154Z,5464.00
2019-04-22T10:06:13.297Z,5576.00
2019-04-22T10:06:54.694Z,5636.00
2019-04-22T10:08:03.272Z,5580.00
2019-04-22T10:09:26.295Z,5640.00
2019-04-22T10:10:03.655Z,5656.00
2019-04-22T10:11:06.004Z,5700.00
2019-04-22T10:11:57.734Z,5804.00
2019-04-22T10:12:54.074Z,5652.00
2019-04-22T10:13:58.683Z,5788.00
2019-04-22T10:15:18.401Z,5748.00
2019-04-22T10:16:08.071Z,5876.00
2019-04-22T10:16:59.974Z,5992.00
2019-04-22T10:18:04.832Z,6016.00
2019-04-22T10:20:01.129Z,6016.00
2019-04-22T10:21:02.380Z,6052.00
2019-04-22T10:22:02.948Z,6084.00
2019-04-22T10:22:57.460Z,6112.00
2019-04-22T10:24:05.431Z,6116.00
2019-04-22T10:25:03.311Z,6144.00
2019-04-22T10:26:04.973Z,6172.00
2019-04-22T10:27:01.727Z,6256.00
2019-04-22T10:28:08.841Z,6384.00
2019-04-22T10:29:09.170Z,6528.00
2019-04-22T10:31:05.416Z,6904.00
2019-04-22T10:32:00.928Z,20032.00
2019-04-22T10:33:02.047Z,9856.00
2019-04-22T10:33:53.225Z,27616.00
2019-04-22T10:34:45.759Z,34336.00
2019-04-22T10:35:39.352Z,23424.00
2019-04-22T10:36:38.434Z,20864.00
2019-04-22T10:37:38.629Z,13696.00
2019-04-22T10:38:38.157Z,60192.00
2019-04-22T10:39:45.838Z,67168.00
2019-04-22T10:40:38.818Z,64640.00
2019-04-22T10:41:38.975Z,0.00
2019-04-22T10:42:38.984Z,30112.00
2019-04-22T10:43:39.201Z,65856.00
2019-04-22T10:44:39.249Z,87424.00
2019-04-22T10:45:39.807Z,15752.00
2019-04-22T10:46:40.257Z,14048.00
2019-04-22T10:47:40.358Z,15904.00
2019-04-22T10:48:40.130Z,17508.00
2019-04-22T10:49:40.368Z,41664.00
2019-04-22T10:50:41.034Z,43616.00
2019-04-22T10:51:40.363Z,50560.00
2019-04-22T10:52:41.382Z,54048.00
2019-04-22T10:53:41.607Z,30496.00
2019-04-22T10:54:41.265Z,56320.00
2019-04-22T10:55:43.439Z,68288.00
2019-04-22T10:56:41.095Z,67104.00
2019-04-22T10:57:41.051Z,61824.00
2019-04-22T10:58:42.438Z,42656.00
2019-04-22T10:59:41.097Z,35680.00
2019-04-22T11:00:41.839Z,52384.00
2019-04-22T11:01:42.337Z,43456.00
2019-04-22T11:02:41.618Z,39712.00
2019-04-22T11:03:41.677Z,25408.00
2019-04-22T11:04:41.817Z,17536.00
2019-04-22T11:05:42.126Z,17152.00
2019-04-22T11:06:51.833Z,25920.00
2019-04-22T11:07:51.423Z,18336.00
2019-04-22T11:08:50.489Z,19008.00
2019-04-22T11:09:52.013Z,27232.00
2019-04-22T11:11:00.594Z,21792.00
2019-04-22T11:11:52.098Z,28992.00
2019-04-22T11:12:43.274Z,22048.00
2019-04-22T11:13:44.033Z,23616.00
2019-04-22T11:14:43.406Z,14320.00
2019-04-22T11:15:44.589Z,14424.00
2019-04-22T11:16:43.665Z,17760.00
2019-04-22T11:17:43.868Z,14988.00
2019-04-22T11:18:45.370Z,13008.00
2019-04-22T11:19:44.047Z,13800.00
2019-04-22T11:20:44.178Z,11184.00
2019-04-22T11:21:57.060Z,11224.00
2019-04-22T11:22:44.688Z,12116.00
2019-04-22T11:23:44.790Z,11380.00
2019-04-22T11:24:44.724Z,11680.00
2019-04-22T11:25:46.049Z,11392.00
2019-04-22T11:26:45.226Z,11364.00
2019-04-22T11:27:45.158Z,11316.00
2019-04-22T11:28:45.524Z,11020.00
2019-04-22T11:29:45.725Z,10788.00
2019-04-22T11:30:45.557Z,10924.00
2019-04-22T11:31:46.454Z,11256.00
2019-04-22T11:32:46.565Z,11164.00
2019-04-22T11:33:46.017Z,11008.00
2019-04-22T11:34:47.044Z,10956.00
2019-04-22T11:35:46.291Z,11040.00
2019-04-22T11:36:47.218Z,10996.00
2019-04-22T11:37:46.758Z,10948.00
2019-04-22T11:38:54.046Z,10936.00
2019-04-22T11:39:54.494Z,10812.00
2019-04-22T11:40:50.463Z,10776.00
2019-04-22T11:41:47.144Z,10764.00
2019-04-22T11:42:48.210Z,10528.00
2019-04-22T11:43:47.474Z,10608.00
2019-04-22T11:44:47.629Z,10764.00
2019-04-22T11:45:49.124Z,10492.00
2019-04-22T11:46:47.875Z,10584.00
2019-04-22T11:47:48.021Z,10412.00
2019-04-22T11:48:48.156Z,10364.00
2019-04-22T11:49:48.316Z,10480.00
2019-04-22T11:50:48.451Z,10528.00
2019-04-22T11:51:49.782Z,10848.00
2019-04-22T11:52:48.949Z,10808.00
2019-04-22T11:53:49.169Z,10252.00
2019-04-22T11:54:49.023Z,10540.00
2019-04-22T11:55:49.169Z,10264.00
2019-04-22T11:56:49.568Z,10304.00
2019-04-22T11:57:49.865Z,10328.00
2019-04-22T11:58:50.809Z,10384.00
2019-04-22T11:59:51.071Z,10312.00
2019-04-22T12:00:51.474Z,10432.00
2019-04-22T12:01:51.031Z,10456.00
2019-04-22T12:02:51.169Z,10316.00
2019-04-22T12:03:51.649Z,10328.00
2019-04-22T12:04:51.822Z,10364.00
2019-04-22T12:05:52.078Z,10344.00
2019-04-22T12:06:51.739Z,10408.00
2019-04-22T12:07:51.015Z,10324.00
2019-04-22T12:08:51.917Z,10292.00
2019-04-22T12:09:51.411Z,10304.00
2019-04-22T12:10:55.396Z,10424.00
2019-04-22T12:11:51.752Z,10436.00
2019-04-22T12:12:53.424Z,10280.00
2019-04-22T12:13:51.943Z,10252.00
2019-04-22T12:14:52.330Z,10360.00
2019-04-22T12:15:53.351Z,10164.00
2019-04-22T12:16:53.182Z,10052.00
2019-04-22T12:17:53.097Z,9848.00
2019-04-22T12:18:53.488Z,9944.00
2019-04-22T12:19:52.744Z,10156.00
2019-04-22T12:20:53.175Z,10264.00
2019-04-22T12:21:53.261Z,10300.00
2019-04-22T12:22:53.433Z,10384.00
2019-04-22T12:23:54.809Z,10456.00
2019-04-22T12:24:54.388Z,10424.00
2019-04-22T12:26:00.938Z,10532.00
2019-04-22T12:26:53.809Z,10460.00
2019-04-22T12:27:55.106Z,10648.00
2019-04-22T12:28:55.057Z,10656.00
2019-04-22T12:29:54.230Z,10476.00
2019-04-22T12:30:55.327Z,10236.00
2019-04-22T12:31:55.574Z,10308.00
2019-04-22T12:32:54.771Z,10360.00
2019-04-22T12:33:55.133Z,10464.00
2019-04-22T12:34:55.563Z,10564.00
2019-04-22T12:35:55.119Z,10684.00
2019-04-22T12:36:56.320Z,10776.00
2019-04-22T12:38:00.688Z,10848.00
2019-04-22T12:38:55.730Z,10908.00
2019-04-22T12:39:56.560Z,10924.00
2019-04-22T12:41:00.672Z,10932.00
2019-04-22T12:41:56.247Z,10996.00
2019-04-22T12:42:57.532Z,11072.00
2019-04-22T12:43:56.249Z,11028.00
2019-04-22T12:44:56.382Z,11028.00
2019-04-22T12:45:56.520Z,11044.00
2019-04-22T12:46:56.652Z,11016.00
2019-04-22T12:47:57.919Z,10884.00
2019-04-22T12:48:58.225Z,10828.00
2019-04-22T12:50:10.341Z,10508.00
2019-04-22T12:50:58.496Z,10400.00
2019-04-22T12:51:58.844Z,10628.00
2019-04-22T12:53:03.031Z,10732.00
2019-04-22T12:53:58.990Z,10588.00
2019-04-22T12:54:57.775Z,10568.00
2019-04-22T12:55:59.322Z,10480.00
2019-04-22T12:56:59.601Z,10428.00
2019-04-22T12:58:00.755Z,10356.00
2019-04-22T12:58:59.372Z,10140.00
2019-04-22T12:59:59.593Z,10480.00
2019-04-22T13:00:58.951Z,10444.00
2019-04-22T13:01:58.752Z,10404.00
2019-04-22T13:02:58.965Z,10600.00
2019-04-22T13:04:05.730Z,10576.00
2019-04-22T13:05:00.346Z,10628.00
2019-04-22T13:05:59.418Z,10668.00
2019-04-22T13:06:59.749Z,10720.00
2019-04-22T13:08:00.092Z,10688.00
2019-04-22T13:09:00.271Z,10688.00
2019-04-22T13:10:01.262Z,10692.00
2019-04-22T13:11:06.855Z,10616.00
2019-04-22T13:12:01.250Z,10588.00
2019-04-22T13:13:00.873Z,10648.00
2019-04-22T13:14:00.939Z,10716.00
2019-04-22T13:15:01.516Z,10628.00
2019-04-22T13:16:00.751Z,10688.00
2019-04-22T13:17:02.040Z,10684.00
2019-04-22T13:18:10.324Z,10764.00
2019-04-22T13:19:05.645Z,10836.00
2019-04-22T13:20:02.501Z,10684.00
2019-04-22T13:21:02.310Z,10676.00
2019-04-22T13:22:02.815Z,10660.00
2019-04-22T13:23:02.197Z,10536.00
2019-04-22T13:24:02.701Z,10540.00
2019-04-22T13:25:02.134Z,10380.00
2019-04-22T13:26:03.058Z,10228.00
2019-04-22T13:27:03.320Z,9924.00
2019-04-22T13:28:03.025Z,10024.00
2019-04-22T13:29:03.246Z,9956.00
2019-04-22T13:30:04.570Z,10016.00
2019-04-22T13:31:03.778Z,9940.00
2019-04-22T13:32:03.041Z,9808.00
2019-04-22T13:33:03.179Z,9992.00
2019-04-22T13:34:04.065Z,10136.00
2019-04-22T13:35:04.989Z,10116.00
2019-04-22T13:36:03.806Z,10328.00
2019-04-22T13:37:05.026Z,10384.00
2019-04-22T13:38:04.809Z,10396.00
2019-04-22T13:39:04.841Z,10320.00
2019-04-22T13:40:05.387Z,10220.00
2019-04-22T13:41:28.254Z,10180.00
2019-04-22T13:42:07.504Z,10064.00
2019-04-22T13:43:04.911Z,9968.00
2019-04-22T13:44:05.002Z,9900.00
2019-04-22T13:45:04.938Z,9872.00
2019-04-22T13:46:06.042Z,9684.00
2019-04-22T13:47:26.948Z,9504.00
2019-04-22T13:48:21.994Z,9340.00
2019-04-22T13:49:31.091Z,9104.00
2019-04-22T13:51:40.991Z,8936.00
2019-04-22T13:55:38.497Z,8444.00
2019-04-22T13:56:24.831Z,8520.00
2019-04-22T13:57:27.655Z,8328.00
2019-04-22T13:58:18.507Z,8236.00
2019-04-22T13:59:13.607Z,8228.00
2019-04-22T14:00:09.546Z,7976.00
2019-04-22T14:01:07.178Z,8036.00
2019-04-22T14:02:08.485Z,7984.00